createdAt,value
2018-08-11T00:00:23.423Z,76.40
2018-08-11T00:02:52.679Z,76.90
2018-08-11T00:05:21.617Z,77.30
2018-08-11T00:07:50.821Z,77.70
2018-08-11T00:10:20.398Z,78.30
2018-08-11T00:12:49.278Z,78.60
2018-08-11T00:15:18.747Z,79.00
2018-08-11T00:17:47.824Z,79.40
2018-08-11T00:20:26.099Z,79.90
2018-08-11T00:22:55.045Z,80.20
2018-08-11T00:25:24.219Z,80.60
2018-08-11T00:27:53.155Z,81.00
2018-08-11T00:30:21.763Z,81.50
2018-08-11T00:32:51.070Z,81.80
2018-08-11T00:35:20.379Z,82.40
2018-08-11T00:37:50.091Z,82.40
2018-08-11T00:40:19.570Z,82.70
2018-08-11T00:42:49.444Z,83.00
2018-08-11T00:45:18.926Z,83.20
2018-08-11T00:47:48.125Z,83.30
2018-08-11T00:50:23.343Z,83.50
2018-08-11T00:52:52.168Z,83.90
2018-08-11T00:55:21.236Z,84.10
2018-08-11T00:57:50.206Z,84.20
2018-08-11T01:00:19.436Z,84.60
2018-08-11T01:02:48.127Z,85.00
2018-08-11T01:05:18.394Z,84.80
2018-08-11T01:07:48.096Z,85.00
2018-08-11T01:10:17.040Z,85.30
2018-08-11T01:12:46.375Z,85.40
2018-08-11T01:15:17.114Z,85.50
2018-08-11T01:17:47.277Z,85.70
2018-08-11T01:20:16.586Z,85.70
2018-08-11T01:22:46.178Z,86.00
2018-08-11T01:25:15.119Z,86.40
2018-08-11T01:27:43.820Z,86.60
2018-08-11T01:30:16.819Z,86.70
2018-08-11T01:32:45.319Z,86.80
2018-08-11T01:35:13.811Z,86.90
2018-08-11T01:37:43.043Z,86.90
2018-08-11T01:40:12.566Z,87.30
2018-08-11T01:42:42.220Z,87.40
2018-08-11T01:45:11.371Z,87.50
2018-08-11T01:47:40.319Z,87.60
2018-08-11T01:50:09.884Z,87.80
2018-08-11T01:52:38.797Z,88.10
2018-08-11T01:55:07.164Z,88.10
2018-08-11T01:57:36.684Z,88.40
2018-08-11T02:00:06.831Z,88.30
2018-08-11T02:02:35.711Z,88.30
2018-08-11T02:05:04.257Z,88.20
2018-08-11T02:07:32.659Z,88.20
2018-08-11T02:10:01.122Z,88.20
2018-08-11T02:12:29.651Z,88.20
2018-08-11T02:14:58.139Z,88.20
2018-08-11T02:17:26.642Z,88.10
2018-08-11T02:19:55.160Z,88.10
2018-08-11T02:22:23.524Z,88.20
2018-08-11T02:24:52.092Z,88.20
2018-08-11T02:27:20.523Z,88.30
2018-08-11T02:29:48.841Z,88.40
2018-08-11T02:32:17.243Z,88.50
2018-08-11T02:34:45.440Z,88.60
2018-08-11T02:37:13.740Z,88.60
2018-08-11T02:39:42.136Z,88.60
2018-08-11T02:42:10.497Z,88.80
2018-08-11T02:44:39.127Z,88.70
2018-08-11T02:47:07.570Z,88.80
2018-08-11T02:49:36.019Z,88.60
2018-08-11T02:52:04.975Z,88.70
2018-08-11T02:54:33.334Z,88.80
2018-08-11T02:57:01.937Z,88.60
2018-08-11T02:59:30.364Z,87.70
2018-08-11T03:01:58.872Z,88.40
2018-08-11T03:04:27.340Z,88.40
2018-08-11T03:06:55.663Z,88.30
2018-08-11T03:09:23.909Z,87.40
2018-08-11T03:11:52.159Z,87.80
2018-08-11T03:14:20.535Z,87.40
2018-08-11T03:16:48.825Z,88.20
2018-08-11T03:19:17.343Z,87.70
2018-08-11T03:21:45.835Z,87.80
2018-08-11T03:24:14.156Z,87.80
2018-08-11T03:26:42.448Z,87.50
2018-08-11T03:29:10.724Z,87.20
2018-08-11T03:31:39.246Z,87.10
2018-08-11T03:34:07.762Z,87.00
2018-08-11T03:36:36.327Z,87.10
2018-08-11T03:39:07.251Z,87.00
2018-08-11T03:41:35.481Z,86.70
2018-08-11T03:44:03.701Z,86.60
2018-08-11T03:46:31.895Z,86.70
2018-08-11T03:49:00.281Z,86.70
2018-08-11T03:51:28.781Z,86.40
2018-08-11T03:53:57.162Z,86.30
2018-08-11T03:56:25.760Z,86.40
2018-08-11T03:58:54.406Z,86.30
2018-08-11T04:01:22.687Z,86.30
2018-08-11T04:03:51.206Z,86.30
2018-08-11T04:06:19.604Z,86.40
2018-08-11T04:08:48.514Z,86.40
2018-08-11T04:11:16.792Z,86.60
2018-08-11T04:13:45.418Z,86.80
2018-08-11T04:16:13.908Z,86.70
2018-08-11T04:18:42.296Z,86.90
2018-08-11T04:21:10.519Z,87.10
2018-08-11T04:23:39.011Z,86.50
2018-08-11T04:26:08.147Z,86.40
2018-08-11T04:28:36.431Z,86.40
2018-08-11T04:31:04.711Z,86.10
2018-08-11T04:33:33.065Z,85.70
2018-08-11T04:36:01.529Z,85.70
2018-08-11T04:38:29.812Z,85.50
2018-08-11T04:40:58.226Z,85.60
2018-08-11T04:43:26.508Z,85.70
2018-08-11T04:45:55.021Z,85.20
2018-08-11T04:48:23.327Z,85.00
2018-08-11T04:50:51.798Z,84.10
2018-08-11T04:53:20.117Z,83.60
2018-08-11T04:55:48.402Z,83.50
2018-08-11T04:58:16.704Z,83.20
2018-08-11T05:00:45.102Z,83.30
2018-08-11T05:03:13.599Z,83.10
2018-08-11T05:05:42.836Z,83.00
2018-08-11T05:08:11.853Z,83.20
2018-08-11T05:10:40.242Z,83.30
2018-08-11T05:13:08.732Z,83.20
2018-08-11T05:15:37.110Z,83.10
2018-08-11T05:18:05.946Z,82.10
2018-08-11T05:20:34.238Z,82.90
2018-08-11T05:23:02.842Z,83.10
2018-08-11T05:25:31.370Z,83.00
2018-08-11T05:27:59.660Z,82.70
2018-08-11T05:30:27.809Z,82.20
2018-08-11T05:32:56.050Z,82.00
2018-08-11T05:35:24.342Z,81.70
2018-08-11T05:37:52.736Z,81.40
2018-08-11T05:40:21.119Z,81.40
2018-08-11T05:42:49.628Z,81.10
2018-08-11T05:45:17.831Z,80.70
2018-08-11T05:47:46.243Z,80.40
2018-08-11T05:50:14.522Z,80.80
2018-08-11T05:52:42.819Z,80.40
2018-08-11T05:55:11.221Z,79.90
2018-08-11T05:57:39.720Z,79.30
2018-08-11T06:00:09.132Z,78.80
2018-08-11T06:02:37.654Z,78.20
2018-08-11T06:05:06.440Z,78.60
2018-08-11T06:07:34.542Z,80.40
2018-08-11T06:10:03.009Z,76.80
2018-08-11T06:12:31.655Z,69.70
2018-08-11T06:14:59.972Z,61.90
2018-08-11T06:17:28.865Z,55.70
2018-08-11T06:19:57.260Z,50.50
2018-08-11T06:22:25.652Z,45.10
2018-08-11T06:24:53.956Z,44.00
2018-08-11T06:27:22.460Z,42.50
2018-08-11T06:29:50.747Z,40.50
2018-08-11T06:32:19.214Z,38.60
2018-08-11T06:34:47.586Z,36.00
2018-08-11T06:37:15.976Z,34.80
2018-08-11T06:39:44.388Z,33.70
2018-08-11T06:42:12.642Z,31.70
2018-08-11T06:44:40.828Z,30.00
2018-08-11T06:47:09.105Z,30.80
2018-08-11T06:49:37.452Z,32.40
2018-08-11T06:52:06.277Z,34.60
2018-08-11T06:54:34.859Z,37.00
2018-08-11T06:57:03.379Z,38.80
2018-08-11T06:59:31.669Z,40.90
2018-08-11T07:02:00.682Z,42.40
2018-08-11T07:04:29.268Z,43.20
2018-08-11T07:06:57.845Z,44.00
2018-08-11T07:09:26.401Z,44.50
2018-08-11T07:11:54.885Z,45.10
2018-08-11T07:14:23.398Z,46.00
2018-08-11T07:16:52.013Z,46.50
2018-08-11T07:19:20.282Z,46.50
2018-08-11T07:21:48.778Z,45.60
2018-08-11T07:24:17.112Z,43.00
2018-08-11T07:26:45.842Z,40.40
2018-08-11T07:29:14.168Z,39.10
2018-08-11T07:31:42.617Z,38.20
2018-08-11T07:34:10.890Z,36.30
2018-08-11T07:36:39.380Z,34.70
2018-08-11T07:39:08.722Z,32.70
2018-08-11T07:41:37.202Z,31.50
2018-08-11T07:44:05.742Z,30.70
2018-08-11T07:46:34.055Z,29.80
2018-08-11T07:49:02.622Z,29.30
2018-08-11T07:51:30.934Z,29.20
2018-08-11T07:54:00.392Z,29.80
2018-08-11T07:56:28.737Z,30.30
2018-08-11T07:58:57.251Z,29.70
2018-08-11T08:01:25.706Z,30.00
2018-08-11T08:03:54.276Z,31.40
2018-08-11T08:06:22.709Z,32.90
2018-08-11T08:08:51.049Z,34.80
2018-08-11T08:11:19.532Z,36.70
2018-08-11T08:13:47.750Z,38.60
2018-08-11T08:16:16.277Z,40.30
2018-08-11T08:18:44.643Z,41.60
2018-08-11T08:21:13.168Z,42.60
2018-08-11T08:23:41.662Z,43.70
2018-08-11T08:26:10.046Z,44.70
2018-08-11T08:28:38.467Z,45.50
2018-08-11T08:31:06.857Z,46.30
2018-08-11T08:33:35.930Z,46.00
2018-08-11T08:36:04.697Z,44.80
2018-08-11T08:38:33.086Z,43.60
2018-08-11T08:41:02.109Z,42.40
2018-08-11T08:43:30.600Z,41.70
2018-08-11T08:45:58.884Z,40.70
2018-08-11T08:48:27.401Z,40.30
2018-08-11T08:50:55.801Z,39.70
2018-08-11T08:53:24.263Z,39.60
2018-08-11T08:55:52.596Z,40.00
2018-08-11T08:58:20.921Z,40.70
2018-08-11T09:00:49.076Z,41.00
2018-08-11T09:03:17.380Z,41.20
2018-08-11T09:05:45.799Z,41.00
2018-08-11T09:08:14.201Z,40.70
2018-08-11T09:10:42.580Z,40.80
2018-08-11T09:13:11.012Z,41.00
2018-08-11T09:15:39.799Z,41.50
2018-08-11T09:18:08.172Z,41.10
2018-08-11T09:20:36.604Z,41.40
2018-08-11T09:23:05.080Z,41.70
2018-08-11T09:25:33.416Z,42.10
2018-08-11T09:28:02.104Z,42.70
2018-08-11T09:30:30.608Z,42.20
2018-08-11T09:32:58.934Z,41.80
2018-08-11T09:35:27.279Z,41.60
2018-08-11T09:37:55.708Z,41.20
2018-08-11T09:40:24.413Z,41.50
2018-08-11T09:42:53.033Z,40.50
2018-08-11T09:45:21.507Z,40.20
2018-08-11T09:47:49.906Z,41.20
2018-08-11T09:50:19.467Z,40.80
2018-08-11T09:52:47.836Z,41.00
2018-08-11T09:55:16.834Z,41.00
2018-08-11T09:57:45.334Z,41.10
2018-08-11T10:00:15.389Z,41.60
2018-08-11T10:02:43.666Z,42.10
2018-08-11T10:05:12.367Z,41.90
2018-08-11T10:07:40.490Z,41.50
2018-08-11T10:10:08.997Z,41.20
2018-08-11T10:12:37.253Z,41.00
2018-08-11T10:15:05.600Z,40.80
2018-08-11T10:17:33.878Z,40.40
2018-08-11T10:20:02.502Z,40.00
2018-08-11T10:22:30.890Z,39.20
2018-08-11T10:24:59.385Z,38.80
2018-08-11T10:27:27.882Z,39.10
2018-08-11T10:29:56.483Z,39.40
2018-08-11T10:32:24.880Z,38.90
2018-08-11T10:34:53.432Z,38.60
2018-08-11T10:37:21.770Z,38.30
2018-08-11T10:39:50.196Z,38.60
2018-08-11T10:42:19.193Z,39.10
2018-08-11T10:44:47.497Z,39.40
2018-08-11T10:47:15.898Z,39.20
2018-08-11T10:49:44.617Z,39.40
2018-08-11T10:52:12.884Z,39.50
2018-08-11T10:54:41.395Z,39.30
2018-08-11T10:57:09.892Z,38.70
2018-08-11T10:59:38.818Z,39.00
2018-08-11T11:02:07.430Z,38.30
2018-08-11T11:04:35.951Z,38.20
2018-08-11T11:07:04.309Z,38.40
2018-08-11T11:09:32.793Z,39.00
2018-08-11T11:12:01.258Z,39.00
2018-08-11T11:14:29.522Z,38.20
2018-08-11T11:16:57.720Z,37.50
2018-08-11T11:19:25.919Z,36.80
2018-08-11T11:21:54.508Z,36.20
2018-08-11T11:24:22.922Z,36.20
2018-08-11T11:26:51.190Z,36.10
2018-08-11T11:29:19.827Z,36.10
2018-08-11T11:31:48.501Z,35.70
2018-08-11T11:34:17.006Z,35.20
2018-08-11T11:36:45.453Z,34.70
2018-08-11T11:39:13.718Z,34.00
2018-08-11T11:41:42.321Z,34.00
2018-08-11T11:44:10.711Z,33.90
2018-08-11T11:46:39.216Z,33.60
2018-08-11T11:49:08.561Z,33.40
2018-08-11T11:51:36.753Z,33.50
2018-08-11T11:54:05.481Z,33.60
2018-08-11T11:56:34.216Z,33.90
2018-08-11T11:59:02.922Z,33.20
2018-08-11T12:01:34.090Z,32.20
2018-08-11T12:04:02.706Z,31.70
2018-08-11T12:06:31.348Z,31.40
2018-08-11T12:08:59.741Z,31.80
2018-08-11T12:11:28.417Z,31.80
2018-08-11T12:13:56.998Z,31.80
2018-08-11T12:16:25.445Z,32.00
2018-08-11T12:18:56.675Z,31.70
2018-08-11T12:21:28.162Z,31.40
2018-08-11T12:24:00.830Z,31.70
2018-08-11T12:26:35.086Z,32.20
2018-08-11T12:29:06.819Z,32.70
2018-08-11T12:31:35.589Z,33.70
2018-08-11T12:34:04.313Z,33.40
2018-08-11T12:36:34.076Z,32.90
2018-08-11T12:39:03.675Z,33.10
2018-08-11T12:41:32.159Z,33.30
2018-08-11T12:44:00.762Z,33.50
2018-08-11T12:46:29.178Z,33.30
2018-08-11T12:48:57.480Z,33.50
2018-08-11T12:51:25.989Z,33.40
2018-08-11T12:53:54.361Z,33.40
2018-08-11T12:56:22.539Z,33.40
2018-08-11T12:58:51.099Z,33.70
2018-08-11T13:01:20.276Z,33.90
2018-08-11T13:03:48.672Z,33.70
2018-08-11T13:06:17.200Z,34.00
2018-08-11T13:08:45.677Z,34.50
2018-08-11T13:11:14.311Z,34.40
2018-08-11T13:13:42.637Z,34.30
2018-08-11T13:16:11.026Z,34.90
2018-08-11T13:18:39.504Z,35.30
2018-08-11T13:21:07.970Z,35.00
2018-08-11T13:23:36.560Z,35.00
2018-08-11T13:26:04.986Z,34.70
2018-08-11T13:28:33.405Z,34.40
2018-08-11T13:31:01.769Z,34.30
2018-08-11T13:33:30.274Z,34.40
2018-08-11T13:35:58.781Z,34.50
2018-08-11T13:38:27.199Z,34.20
2018-08-11T13:40:55.690Z,34.30
2018-08-11T13:45:52.066Z,34.20
2018-08-11T13:48:20.462Z,34.70
2018-08-11T13:50:49.482Z,34.90
2018-08-11T13:53:18.431Z,35.50
2018-08-11T13:55:47.435Z,35.10
2018-08-11T13:58:15.727Z,35.20
2018-08-11T14:00:44.319Z,35.80
2018-08-11T14:03:12.476Z,36.80
2018-08-11T14:05:40.790Z,37.50
2018-08-11T14:08:09.212Z,37.50
2018-08-11T14:10:37.838Z,38.30
2018-08-11T14:13:06.515Z,37.80
2018-08-11T14:15:36.037Z,37.80
2018-08-11T14:18:07.965Z,37.60
2018-08-11T14:20:36.407Z,37.60
2018-08-11T14:23:05.153Z,37.20
2018-08-11T14:25:33.565Z,37.20
2018-08-11T14:28:02.230Z,36.80
2018-08-11T14:30:30.320Z,37.00
2018-08-11T14:32:58.502Z,37.20
2018-08-11T14:35:26.909Z,37.10
2018-08-11T14:37:55.194Z,36.60
2018-08-11T14:40:23.707Z,36.70
2018-08-11T14:42:52.040Z,36.70
2018-08-11T14:45:21.537Z,36.90
2018-08-11T14:47:49.963Z,36.50
2018-08-11T14:50:19.063Z,36.60
2018-08-11T14:52:47.554Z,36.60
2018-08-11T14:55:15.962Z,36.70
2018-08-11T14:57:44.323Z,36.60
2018-08-11T15:00:13.342Z,36.80
2018-08-11T15:02:41.759Z,37.00
2018-08-11T15:05:10.265Z,37.30
2018-08-11T15:07:38.681Z,37.10
2018-08-11T15:10:07.882Z,37.30
2018-08-11T15:12:36.261Z,36.40
2018-08-11T15:15:05.682Z,36.10
2018-08-11T15:17:34.226Z,35.90
2018-08-11T15:20:02.866Z,35.60
2018-08-11T15:22:31.131Z,35.50
2018-08-11T15:24:59.505Z,35.50
2018-08-11T15:27:27.925Z,35.50
2018-08-11T15:29:56.415Z,35.60
2018-08-11T15:32:24.930Z,35.70
2018-08-11T15:34:53.308Z,35.90
2018-08-11T15:37:21.516Z,36.10
2018-08-11T15:39:49.819Z,36.30
2018-08-11T15:42:18.233Z,36.50
2018-08-11T15:44:47.191Z,36.80
2018-08-11T15:47:15.719Z,36.70
2018-08-11T15:49:44.018Z,36.50
2018-08-11T15:52:12.440Z,35.90
2018-08-11T15:54:40.805Z,35.80
2018-08-11T15:57:09.212Z,35.20
2018-08-11T15:59:38.215Z,34.80
2018-08-11T16:02:07.591Z,34.90
2018-08-11T16:04:35.969Z,34.70
2018-08-11T16:07:04.673Z,34.80
2018-08-11T16:09:32.960Z,34.50
2018-08-11T16:12:01.267Z,34.10
2018-08-11T16:14:29.566Z,33.90
2018-08-11T16:16:58.049Z,34.10
2018-08-11T16:19:26.431Z,34.10
2018-08-11T16:21:54.730Z,34.10
2018-08-11T16:24:24.035Z,33.60
2018-08-11T16:26:52.683Z,34.10
2018-08-11T16:29:21.094Z,34.40
2018-08-11T16:31:49.920Z,34.10
2018-08-11T16:34:18.725Z,33.70
2018-08-11T16:36:47.424Z,33.50
2018-08-11T16:39:15.851Z,33.50
2018-08-11T16:41:44.592Z,34.50
2018-08-11T16:44:13.398Z,34.30
2018-08-11T16:46:43.099Z,34.50
2018-08-11T16:49:12.345Z,34.70
2018-08-11T16:51:40.983Z,34.50
2018-08-11T16:54:09.589Z,34.50
2018-08-11T16:56:38.102Z,34.40
2018-08-11T16:59:07.366Z,34.50
2018-08-11T17:01:39.022Z,34.50
2018-08-11T17:04:09.456Z,34.70
2018-08-11T17:06:39.119Z,34.70
2018-08-11T17:09:11.333Z,34.30
2018-08-11T17:11:40.588Z,34.30
2018-08-11T17:14:11.467Z,34.20
2018-08-11T17:16:39.902Z,34.30
2018-08-11T17:19:09.519Z,34.40
2018-08-11T17:21:39.750Z,34.20
2018-08-11T17:24:09.170Z,34.10
2018-08-11T17:26:38.465Z,34.10
2018-08-11T17:29:07.094Z,34.20
2018-08-11T17:31:35.751Z,34.10
2018-08-11T17:34:05.195Z,34.20
2018-08-11T17:36:33.647Z,35.30
2018-08-11T17:39:02.051Z,35.20
2018-08-11T17:41:32.516Z,35.30
2018-08-11T17:44:00.808Z,35.30
2018-08-11T17:46:29.400Z,35.70
2018-08-11T17:48:57.816Z,36.00
2018-08-11T17:51:26.098Z,36.20
2018-08-11T17:53:54.710Z,36.00
2018-08-11T17:56:23.865Z,36.10
2018-08-11T17:58:52.501Z,36.00
2018-08-11T18:01:22.048Z,36.00
2018-08-11T18:03:50.657Z,36.30
2018-08-11T18:06:21.118Z,36.30
2018-08-11T18:08:51.556Z,36.30
2018-08-11T18:11:20.466Z,36.40
2018-08-11T18:13:48.903Z,36.80
2018-08-11T18:16:18.158Z,36.90
2018-08-11T18:18:46.562Z,37.00
2018-08-11T18:21:14.763Z,37.10
2018-08-11T18:23:43.148Z,37.60
2018-08-11T18:26:17.321Z,37.70
2018-08-11T18:28:45.909Z,37.50
2018-08-11T18:31:14.400Z,37.90
2018-08-11T18:33:42.890Z,38.30
2018-08-11T18:36:11.406Z,38.50
2018-08-11T18:38:39.551Z,39.00
2018-08-11T18:41:07.903Z,38.80
2018-08-11T18:43:36.283Z,38.60
2018-08-11T18:46:04.615Z,38.60
2018-08-11T18:48:34.027Z,38.60
2018-08-11T18:51:02.930Z,38.70
2018-08-11T18:53:32.021Z,38.90
2018-08-11T18:56:01.214Z,39.00
2018-08-11T18:58:29.863Z,39.00
2018-08-11T19:01:03.276Z,38.80
2018-08-11T19:03:31.811Z,38.90
2018-08-11T19:06:00.407Z,39.10
2018-08-11T19:08:29.458Z,39.00
2018-08-11T19:10:58.568Z,39.10
2018-08-11T19:13:27.422Z,39.20
2018-08-11T19:15:56.372Z,39.30
2018-08-11T19:18:24.923Z,39.30
2018-08-11T19:20:53.440Z,39.90
2018-08-11T19:23:21.881Z,39.90
2018-08-11T19:25:50.499Z,39.90
2018-08-11T19:28:19.049Z,40.20
2018-08-11T19:30:47.553Z,40.20
2018-08-11T19:33:15.848Z,40.90
2018-08-11T19:35:45.282Z,41.10
2018-08-11T19:38:13.874Z,41.10
2018-08-11T19:40:42.394Z,41.10
2018-08-11T19:43:11.054Z,41.70
2018-08-11T19:45:39.953Z,41.90
2018-08-11T19:48:08.414Z,42.10
2018-08-11T19:50:37.326Z,42.40
2018-08-11T19:53:05.971Z,42.80
2018-08-11T19:55:34.611Z,42.90
2018-08-11T19:58:03.542Z,43.20
2018-08-11T20:00:31.946Z,43.40
2018-08-11T20:03:00.445Z,43.70
2018-08-11T20:05:28.601Z,43.80
2018-08-11T20:07:57.331Z,43.70
2018-08-11T20:10:25.743Z,43.90
2018-08-11T20:12:54.739Z,43.80
2018-08-11T20:15:23.351Z,43.70
2018-08-11T20:17:51.850Z,43.90
2018-08-11T20:20:20.387Z,43.80
2018-08-11T20:22:48.968Z,43.80
2018-08-11T20:25:17.616Z,44.00
2018-08-11T20:27:46.063Z,44.10
2018-08-11T20:30:14.735Z,44.20
2018-08-11T20:32:43.169Z,44.30
2018-08-11T20:35:11.679Z,44.50
2018-08-11T20:37:40.092Z,44.60
2018-08-11T20:40:08.992Z,44.60
2018-08-11T20:42:37.362Z,44.70
2018-08-11T20:45:06.263Z,44.70
2018-08-11T20:47:34.728Z,44.90
2018-08-11T20:50:03.217Z,45.10
2018-08-11T20:52:32.005Z,45.10
2018-08-11T20:55:00.625Z,45.20
2018-08-11T20:57:43.702Z,45.30
2018-08-11T21:00:13.078Z,45.60
2018-08-11T21:02:41.566Z,45.90
2018-08-11T21:05:12.319Z,46.30
2018-08-11T21:07:40.889Z,46.50
2018-08-11T21:10:13.135Z,46.60
2018-08-11T21:12:41.997Z,46.90
2018-08-11T21:15:11.059Z,47.20
2018-08-11T21:17:39.533Z,47.60
2018-08-11T21:20:10.203Z,47.80
2018-08-11T21:22:38.750Z,48.00
2018-08-11T21:25:08.114Z,48.20
2018-08-11T21:27:36.598Z,48.30
2018-08-11T21:30:06.819Z,48.50
2018-08-11T21:32:35.525Z,48.60
2018-08-11T21:35:04.051Z,48.70
2018-08-11T21:37:32.555Z,48.90
2018-08-11T21:40:00.940Z,49.10
2018-08-11T21:42:29.343Z,49.30
2018-08-11T21:44:57.740Z,49.50
2018-08-11T21:47:26.232Z,49.50
2018-08-11T21:49:54.613Z,49.70
2018-08-11T21:52:23.272Z,50.10
2018-08-11T21:54:51.831Z,50.50
2018-08-11T21:57:20.258Z,51.10
2018-08-11T21:59:48.754Z,50.30
2018-08-11T22:02:17.942Z,50.50
2018-08-11T22:04:46.482Z,50.60
2018-08-11T22:07:15.011Z,50.60
2018-08-11T22:09:43.439Z,50.90
2018-08-11T22:12:11.785Z,51.10
2018-08-11T22:14:40.266Z,51.30
2018-08-11T22:17:08.885Z,51.50
2018-08-11T22:19:37.491Z,51.70
2018-08-11T22:22:05.853Z,51.70
2018-08-11T22:24:34.523Z,51.90
2018-08-11T22:27:02.950Z,52.10
2018-08-11T22:29:31.598Z,52.20
2018-08-11T22:31:59.980Z,52.50
2018-08-11T22:34:28.510Z,52.60
2018-08-11T22:36:56.989Z,52.60
2018-08-11T22:39:25.511Z,52.80
2018-08-11T22:41:53.778Z,52.90
2018-08-11T22:44:22.299Z,53.10
2018-08-11T22:46:50.666Z,53.80
2018-08-11T22:49:19.094Z,53.40
2018-08-11T22:51:47.446Z,53.60
2018-08-11T22:54:15.911Z,53.70
2018-08-11T22:56:44.819Z,53.90
2018-08-11T22:59:13.298Z,54.10
2018-08-11T23:01:41.721Z,54.30
2018-08-11T23:04:09.999Z,55.00
2018-08-11T23:06:38.601Z,54.50
2018-08-11T23:09:07.116Z,54.60
2018-08-11T23:11:35.599Z,54.80
2018-08-11T23:14:04.045Z,55.00
2018-08-11T23:16:32.748Z,55.00
2018-08-11T23:19:00.929Z,55.00
2018-08-11T23:21:29.319Z,55.10
2018-08-11T23:23:57.880Z,55.50
2018-08-11T23:26:26.417Z,55.40
2018-08-11T23:28:55.136Z,55.60
2018-08-11T23:31:23.540Z,56.40
2018-08-11T23:33:52.056Z,56.00
2018-08-11T23:36:20.644Z,56.10
2018-08-11T23:38:48.964Z,56.20
2018-08-11T23:41:17.328Z,56.30
2018-08-11T23:43:45.759Z,56.40
2018-08-11T23:46:14.128Z,56.50
2018-08-11T23:48:42.732Z,56.60
2018-08-11T23:51:11.281Z,56.80
2018-08-11T23:53:39.520Z,57.20
2018-08-11T23:56:07.614Z,57.10
2018-08-11T23:58:36.123Z,57.50
